Nakkehoved, Denmark

2:13 PM CEST on July 29, 2016 (GMT +0200)
IHOVEDST4 | | Change Station

Elev 20 ft 56.12 °N, 12.31 °E | Updated 5 seconds ago

Clear
Clear
69.3 °F
Feels Like 69.3 °F
N
6.0
Wind Variable Wind from SE
Gusts 21.0 mph

Today
High -- | Low -- °F
--% Chance of Precip.
Yesterday
High -- | Low -- °F
Precip. -- in
Pressure 29.80 in
Visibility -9999.0 miles
Clouds
Dew Point 59 °F
Humidity 70%
Rainfall 0.00 in
Snow Depth Not available.
5:08 AM 9:23 PM
Waning Crescent, 22% visible
METAR ESTA 291150Z 12008KT 080V180 CAVOK 23/13 Q1009
Pressure 29.80 in
Visibility -9999.0 miles
Clouds
Dew Point 59 °F
Humidity 70%
Rainfall 0.00 in
Snow Depth Not available.
5:08 AM 9:23 PM
Waning Crescent, 22% visible
METAR ESTA 291150Z 12008KT 080V180 CAVOK 23/13 Q1009

10-Day Weather Forecast

×

Almanac

Astronomy

Jul. 29, 2016 Rise Set
Actual Time
Civil Twilight
Nautical Twilight
Astronomical Twilight
Moon
Length of Visible Light
Length of Day
Tomorrow will be .
, % of the Moon is Illuminated

Today's Extremes

Country Highs Country Lows

Community

WunderPhotos

Upload Photos

1,928,330 photos uploaded!

WunderBlog® & News

Nearby

Air Quality

  Air Quality AQ Index Pollutant
Not available.

Snow Depth

Station Depth Elevation

Earthquake Activity

City Distance Mag. Time & Date
Minimum magnitude displayed is 2.5.

Coastal Water Temperatures

Place Temperature

Stations

Nearby Weather Stations

Station Location Temp. Windchill Dew Point Humidity Wind Precip. Elev Updated Type